sensor_id;sensor_type;location;lat;lon;timestamp;pressure;altitude;pressure_sealevel;temperature;humidity
50734;BME280;36701;51.798;19.474;2022-12-08T00:01:19;98098.78;;;0.66;100.00
50734;BME280;36701;51.798;19.474;2022-12-08T00:03:46;98088.34;;;0.71;100.00
50734;BME280;36701;51.798;19.474;2022-12-08T00:06:22;98053.66;;;0.21;100.00
50734;BME280;36701;51.798;19.474;2022-12-08T00:09:15;98063.03;;;0.30;100.00
50734;BME280;36701;51.798;19.474;2022-12-08T00:12:06;98054.44;;;0.28;100.00
50734;BME280;36701;51.798;19.474;2022-12-08T00:14:36;98088.94;;;0.80;100.00
50734;BME280;36701;51.798;19.474;2022-12-08T00:17:05;98083.72;;;0.60;100.00
50734;BME280;36701;51.798;19.474;2022-12-08T00:19:32;98097.19;;;0.45;100.00
50734;BME280;36701;51.798;19.474;2022-12-08T00:21:59;98074.84;;;0.21;100.00
50734;BME280;36701;51.798;19.474;2022-12-08T00:24:31;98072.81;;;0.16;100.00
50734;BME280;36701;51.798;19.474;2022-12-08T00:27:03;98104.41;;;0.90;100.00
50734;BME280;36701;51.798;19.474;2022-12-08T00:29:29;98106.94;;;0.65;100.00
50734;BME280;36701;51.798;19.474;2022-12-08T00:31:55;98062.38;;;0.42;100.00
50734;BME280;36701;51.798;19.474;2022-12-08T00:34:22;98098.88;;;-0.01;100.00
50734;BME280;36701;51.798;19.474;2022-12-08T00:36:49;98104.19;;;0.13;100.00
50734;BME280;36701;51.798;19.474;2022-12-08T00:39:16;98095.16;;;0.41;100.00
50734;BME280;36701;51.798;19.474;2022-12-08T00:41:43;98108.22;;;0.42;100.00
50734;BME280;36701;51.798;19.474;2022-12-08T00:44:28;98106.81;;;0.20;100.00
50734;BME280;36701;51.798;19.474;2022-12-08T00:46:55;98069.97;;;0.18;100.00
50734;BME280;36701;51.798;19.474;2022-12-08T00:49:22;98122.50;;;0.21;100.00
50734;BME280;36701;51.798;19.474;2022-12-08T00:51:49;98118.37;;;0.52;100.00
50734;BME280;36701;51.798;19.474;2022-12-08T00:54:15;98113.13;;;0.12;100.00
50734;BME280;36701;51.798;19.474;2022-12-08T00:56:49;98121.25;;;0.24;100.00
50734;BME280;36701;51.798;19.474;2022-12-08T00:59:15;98090.31;;;0.17;100.00
50734;BME280;36701;51.798;19.474;2022-12-08T03:08:07;98140.38;;;-0.34;100.00
50734;BME280;36701;51.798;19.474;2022-12-08T03:10:43;98164.84;;;0.08;100.00
50734;BME280;36701;51.798;19.474;2022-12-08T03:13:15;98133.50;;;-0.09;100.00
50734;BME280;36701;51.798;19.474;2022-12-08T03:15:44;98177.44;;;-0.28;100.00
50734;BME280;36701;51.798;19.474;2022-12-08T03:18:14;98173.81;;;0.07;100.00
50734;BME280;36701;51.798;19.474;2022-12-08T03:20:42;98152.41;;;-0.25;100.00
50734;BME280;36701;51.798;19.474;2022-12-08T03:23:11;98179.28;;;-0.28;100.00
50734;BME280;36701;51.798;19.474;2022-12-08T03:25:45;98171.78;;;-0.05;100.00
50734;BME280;36701;51.798;19.474;2022-12-08T03:28:14;98134.31;;;-0.02;100.00
50734;BME280;36701;51.798;19.474;2022-12-08T03:30:42;98176.47;;;0.07;100.00
50734;BME280;36701;51.798;19.474;2022-12-08T03:33:17;98172.97;;;-0.14;100.00
50734;BME280;36701;51.798;19.474;2022-12-08T03:35:46;98170.56;;;0.31;100.00
50734;BME280;36701;51.798;19.474;2022-12-08T03:38:15;98163.22;;;-0.07;100.00
50734;BME280;36701;51.798;19.474;2022-12-08T03:40:42;98133.06;;;-0.32;100.00
50734;BME280;36701;51.798;19.474;2022-12-08T03:43:09;98133.91;;;-0.25;100.00
50734;BME280;36701;51.798;19.474;2022-12-08T03:45:35;98136.75;;;-0.20;100.00
50734;BME280;36701;51.798;19.474;2022-12-08T03:48:02;98151.84;;;0.13;100.00
50734;BME280;36701;51.798;19.474;2022-12-08T03:50:28;98150.59;;;0.15;100.00
50734;BME280;36701;51.798;19.474;2022-12-08T03:52:55;98153.47;;;-0.06;100.00
50734;BME280;36701;51.798;19.474;2022-12-08T03:55:21;98148.06;;;-0.53;100.00
50734;BME280;36701;51.798;19.474;2022-12-08T03:57:48;98153.62;;;-0.34;100.00
50734;BME280;36701;51.798;19.474;2022-12-08T04:00:15;98171.75;;;-0.18;100.00
50734;BME280;36701;51.798;19.474;2022-12-08T04:02:42;98178.28;;;-0.01;100.00
50734;BME280;36701;51.798;19.474;2022-12-08T04:05:08;98149.56;;;-0.17;100.00
50734;BME280;36701;51.798;19.474;2022-12-08T04:07:35;98164.56;;;-0.51;100.00
50734;BME280;36701;51.798;19.474;2022-12-08T04:10:03;98180.66;;;-0.32;100.00
50734;BME280;36701;51.798;19.474;2022-12-08T04:12:29;98175.44;;;0.01;100.00
50734;BME280;36701;51.798;19.474;2022-12-08T04:14:56;98150.16;;;-0.28;100.00
50734;BME280;36701;51.798;19.474;2022-12-08T04:17:23;98180.72;;;0.08;100.00
50734;BME280;36701;51.798;19.474;2022-12-08T04:19:49;98181.31;;;-0.17;100.00
50734;BME280;36701;51.798;19.474;2022-12-08T04:22:15;98179.28;;;-0.22;100.00
50734;BME280;36701;51.798;19.474;2022-12-08T04:24:42;98168.03;;;-0.37;100.00
50734;BME280;36701;51.798;19.474;2022-12-08T04:27:08;98155.25;;;-0.33;100.00
50734;BME280;36701;51.798;19.474;2022-12-08T04:29:34;98173.56;;;-0.25;100.00
50734;BME280;36701;51.798;19.474;2022-12-08T04:32:01;98159.09;;;-0.43;100.00
50734;BME280;36701;51.798;19.474;2022-12-08T04:34:27;98171.06;;;-0.47;100.00
50734;BME280;36701;51.798;19.474;2022-12-08T04:36:54;98179.06;;;-0.33;100.00
50734;BME280;36701;51.798;19.474;2022-12-08T04:39:20;98185.94;;;-0.46;100.00
50734;BME280;36701;51.798;19.474;2022-12-08T04:41:47;98159.94;;;-0.22;100.00
50734;BME280;36701;51.798;19.474;2022-12-08T04:44:13;98154.19;;;-0.52;100.00
50734;BME280;36701;51.798;19.474;2022-12-08T04:46:40;98196.13;;;-0.36;100.00
50734;BME280;36701;51.798;19.474;2022-12-08T04:49:06;98163.59;;;-0.37;100.00
50734;BME280;36701;51.798;19.474;2022-12-08T04:51:32;98192.28;;;-0.33;100.00
50734;BME280;36701;51.798;19.474;2022-12-08T04:53:59;98177.47;;;-0.08;100.00
50734;BME280;36701;51.798;19.474;2022-12-08T04:56:25;98176.62;;;-0.28;100.00
50734;BME280;36701;51.798;19.474;2022-12-08T04:58:51;98146.84;;;-0.57;100.00
50734;BME280;36701;51.798;19.474;2022-12-08T05:01:18;98183.31;;;-0.32;100.00
50734;BME280;36701;51.798;19.474;2022-12-08T05:03:44;98188.22;;;-0.29;100.00
50734;BME280;36701;51.798;19.474;2022-12-08T05:06:12;98172.34;;;-0.29;100.00
50734;BME280;36701;51.798;19.474;2022-12-08T05:08:39;98196.59;;;-0.06;100.00
50734;BME280;36701;51.798;19.474;2022-12-08T05:11:08;98195.41;;;0.17;100.00
50734;BME280;36701;51.798;19.474;2022-12-08T05:13:34;98187.25;;;0.18;100.00
50734;BME280;36701;51.798;19.474;2022-12-08T05:16:05;98182.56;;;0.07;100.00
50734;BME280;36701;51.798;19.474;2022-12-08T05:18:32;98152.25;;;0.10;100.00
50734;BME280;36701;51.798;19.474;2022-12-08T05:20:59;98148.16;;;0.01;100.00
50734;BME280;36701;51.798;19.474;2022-12-08T05:23:26;98152.41;;;-0.12;100.00
50734;BME280;36701;51.798;19.474;2022-12-08T05:25:52;98153.25;;;-0.05;100.00
50734;BME280;36701;51.798;19.474;2022-12-08T05:28:19;98187.25;;;-0.02;100.00
50734;BME280;36701;51.798;19.474;2022-12-08T05:30:46;98152.22;;;0.03;100.00
50734;BME280;36701;51.798;19.474;2022-12-08T05:33:12;98151.41;;;0.09;100.00
50734;BME280;36701;51.798;19.474;2022-12-08T05:35:39;98157.47;;;-0.37;100.00
50734;BME280;36701;51.798;19.474;2022-12-08T05:38:05;98160.38;;;0.15;100.00
50734;BME280;36701;51.798;19.474;2022-12-08T05:40:32;98153.06;;;0.04;100.00
50734;BME280;36701;51.798;19.474;2022-12-08T05:42:58;98152.66;;;0.00;100.00
50734;BME280;36701;51.798;19.474;2022-12-08T05:45:25;98185.41;;;0.19;100.00
50734;BME280;36701;51.798;19.474;2022-12-08T05:47:52;98192.97;;;0.15;100.00
50734;BME280;36701;51.798;19.474;2022-12-08T05:50:18;98192.56;;;-0.02;100.00
50734;BME280;36701;51.798;19.474;2022-12-08T05:52:45;98194.75;;;0.02;100.00
50734;BME280;36701;51.798;19.474;2022-12-08T05:55:11;98193.34;;;0.12;100.00
50734;BME280;36701;51.798;19.474;2022-12-08T05:57:38;98186.41;;;-0.09;100.00
50734;BME280;36701;51.798;19.474;2022-12-08T06:00:05;98189.28;;;-0.04;100.00
50734;BME280;36701;51.798;19.474;2022-12-08T06:02:37;98194.56;;;-0.04;100.00
50734;BME280;36701;51.798;19.474;2022-12-08T06:05:04;98159.72;;;-0.27;100.00
50734;BME280;36701;51.798;19.474;2022-12-08T06:07:31;98215.38;;;0.26;100.00
50734;BME280;36701;51.798;19.474;2022-12-08T06:09:57;98179.53;;;-0.03;100.00
50734;BME280;36701;51.798;19.474;2022-12-08T06:12:24;98206.00;;;0.44;100.00
50734;BME280;36701;51.798;19.474;2022-12-08T06:14:50;98215.16;;;0.48;100.00
50734;BME280;36701;51.798;19.474;2022-12-08T06:17:16;98201.94;;;0.28;100.00
50734;BME280;36701;51.798;19.474;2022-12-08T06:19:43;98172.37;;;0.38;100.00
50734;BME280;36701;51.798;19.474;2022-12-08T06:22:09;98172.19;;;0.32;100.00
50734;BME280;36701;51.798;19.474;2022-12-08T06:24:36;98206.41;;;0.47;100.00
50734;BME280;36701;51.798;19.474;2022-12-08T06:27:02;98213.12;;;0.23;100.00
50734;BME280;36701;51.798;19.474;2022-12-08T06:29:29;98223.75;;;0.43;100.00
50734;BME280;36701;51.798;19.474;2022-12-08T06:31:55;98180.31;;;0.11;100.00
50734;BME280;36701;51.798;19.474;2022-12-08T06:34:22;98207.84;;;0.16;100.00
50734;BME280;36701;51.798;19.474;2022-12-08T06:36:48;98209.25;;;0.19;100.00
50734;BME280;36701;51.798;19.474;2022-12-08T06:39:14;98223.91;;;0.15;100.00
50734;BME280;36701;51.798;19.474;2022-12-08T06:41:41;98209.47;;;0.24;100.00
50734;BME280;36701;51.798;19.474;2022-12-08T06:44:26;98212.09;;;0.51;100.00
50734;BME280;36701;51.798;19.474;2022-12-08T06:46:52;98196.81;;;0.40;100.00
50734;BME280;36701;51.798;19.474;2022-12-08T06:49:19;98222.69;;;0.51;100.00
50734;BME280;36701;51.798;19.474;2022-12-08T06:51:45;98227.59;;;0.67;100.00
50734;BME280;36701;51.798;19.474;2022-12-08T06:54:12;98196.22;;;0.44;100.00
50734;BME280;36701;51.798;19.474;2022-12-08T06:56:38;98230.44;;;0.72;100.00
50734;BME280;36701;51.798;19.474;2022-12-08T06:59:04;98233.69;;;0.75;100.00
50734;BME280;36701;51.798;19.474;2022-12-08T07:01:31;98206.19;;;0.42;100.00
50734;BME280;36701;51.798;19.474;2022-12-08T07:03:57;98245.91;;;0.62;100.00
50734;BME280;36701;51.798;19.474;2022-12-08T07:06:24;98196.63;;;0.41;100.00
50734;BME280;36701;51.798;19.474;2022-12-08T07:08:50;98230.47;;;0.59;100.00
50734;BME280;36701;51.798;19.474;2022-12-08T07:11:20;98211.06;;;0.59;100.00
50734;BME280;36701;51.798;19.474;2022-12-08T07:13:50;98225.16;;;0.66;100.00
50734;BME280;36701;51.798;19.474;2022-12-08T07:16:18;98193.16;;;0.47;100.00
50734;BME280;36701;51.798;19.474;2022-12-08T07:18:48;98226.78;;;0.60;100.00
50734;BME280;36701;51.798;19.474;2022-12-08T07:21:25;98229.22;;;0.82;100.00
50734;BME280;36701;51.798;19.474;2022-12-08T07:23:54;98231.66;;;0.77;100.00
50734;BME280;36701;51.798;19.474;2022-12-08T07:26:39;98232.87;;;0.81;100.00
50734;BME280;36701;51.798;19.474;2022-12-08T07:29:10;98234.06;;;0.98;100.00
50734;BME280;36701;51.798;19.474;2022-12-08T07:31:42;98233.69;;;0.88;100.00
50734;BME280;36701;51.798;19.474;2022-12-08T07:34:10;98236.12;;;0.49;100.00
50734;BME280;36701;51.798;19.474;2022-12-08T07:36:39;98205.16;;;0.63;100.00
50734;BME280;36701;51.798;19.474;2022-12-08T07:39:10;98228.41;;;0.68;100.00
50734;BME280;36701;51.798;19.474;2022-12-08T07:41:38;98232.06;;;0.80;100.00
50734;BME280;36701;51.798;19.474;2022-12-08T07:44:04;98205.59;;;0.53;100.00
50734;BME280;36701;51.798;19.474;2022-12-08T07:46:53;98230.63;;;0.91;100.00
50734;BME280;36701;51.798;19.474;2022-12-08T07:49:28;98245.44;;;1.19;100.00
50734;BME280;36701;51.798;19.474;2022-12-08T07:51:58;98208.78;;;0.96;100.00
50734;BME280;36701;51.798;19.474;2022-12-08T07:54:26;98236.06;;;1.23;100.00
50734;BME280;36701;51.798;19.474;2022-12-08T07:56:57;98238.09;;;1.21;100.00
50734;BME280;36701;51.798;19.474;2022-12-08T07:59:31;98238.84;;;1.41;100.00
50734;BME280;36701;51.798;19.474;2022-12-08T08:01:59;98229.06;;;1.35;100.00
50734;BME280;36701;51.798;19.474;2022-12-08T08:04:26;98229.44;;;1.45;100.00
50734;BME280;36701;51.798;19.474;2022-12-08T08:06:53;98197.16;;;0.97;100.00
50734;BME280;36701;51.798;19.474;2022-12-08T08:09:22;98234.75;;;1.45;100.00
50734;BME280;36701;51.798;19.474;2022-12-08T08:12:03;98241.91;;;1.38;100.00
50734;BME280;36701;51.798;19.474;2022-12-08T08:14:38;98237.44;;;1.39;100.00
50734;BME280;36701;51.798;19.474;2022-12-08T08:17:05;98236.22;;;1.35;100.00
50734;BME280;36701;51.798;19.474;2022-12-08T08:19:33;98222.22;;;1.07;100.00
50734;BME280;36701;51.798;19.474;2022-12-08T08:22:09;98234.97;;;1.44;100.00
50734;BME280;36701;51.798;19.474;2022-12-08T08:24:47;98250.09;;;1.30;100.00
50734;BME280;36701;51.798;19.474;2022-12-08T08:27:19;98218.19;;;0.92;100.00
50734;BME280;36701;51.798;19.474;2022-12-08T08:29:48;98216.87;;;1.21;100.00
50734;BME280;36701;51.798;19.474;2022-12-08T08:32:17;98254.00;;;1.21;100.00
50734;BME280;36701;51.798;19.474;2022-12-08T08:34:44;98212.19;;;1.23;100.00
50734;BME280;36701;51.798;19.474;2022-12-08T08:37:11;98249.88;;;1.38;100.00
50734;BME280;36701;51.798;19.474;2022-12-08T08:39:42;98249.44;;;1.41;100.00
50734;BME280;36701;51.798;19.474;2022-12-08T08:42:09;98217.66;;;1.28;100.00
50734;BME280;36701;51.798;19.474;2022-12-08T08:44:36;98257.91;;;1.70;100.00
50734;BME280;36701;51.798;19.474;2022-12-08T08:47:05;98253.44;;;1.64;100.00
50734;BME280;36701;51.798;19.474;2022-12-08T08:49:32;98247.37;;;1.43;100.00
50734;BME280;36701;51.798;19.474;2022-12-08T08:52:04;98210.16;;;1.12;100.00
50734;BME280;36701;51.798;19.474;2022-12-08T08:54:35;98248.00;;;1.91;100.00
50734;BME280;36701;51.798;19.474;2022-12-08T08:57:08;98237.88;;;1.74;100.00
50734;BME280;36701;51.798;19.474;2022-12-08T08:59:35;98249.75;;;1.65;100.00
50734;BME280;36701;51.798;19.474;2022-12-08T09:02:02;98243.62;;;1.71;100.00
50734;BME280;36701;51.798;19.474;2022-12-08T09:04:31;98208.25;;;1.39;100.00
50734;BME280;36701;51.798;19.474;2022-12-08T09:07:04;98247.19;;;1.90;100.00
50734;BME280;36701;51.798;19.474;2022-12-08T09:09:33;98217.06;;;1.71;100.00
50734;BME280;36701;51.798;19.474;2022-12-08T09:11:59;98242.19;;;2.07;100.00
50734;BME280;36701;51.798;19.474;2022-12-08T09:14:26;98230.09;;;1.79;100.00
50734;BME280;36701;51.798;19.474;2022-12-08T09:16:52;98231.06;;;1.92;100.00
50734;BME280;36701;51.798;19.474;2022-12-08T09:19:19;98226.69;;;1.66;100.00
50734;BME280;36701;51.798;19.474;2022-12-08T09:21:55;98233.34;;;1.81;100.00
50734;BME280;36701;51.798;19.474;2022-12-08T09:24:33;98193.63;;;2.00;100.00
50734;BME280;36701;51.798;19.474;2022-12-08T09:27:09;98233.97;;;1.84;100.00
50734;BME280;36701;51.798;19.474;2022-12-08T09:29:37;98224.38;;;1.83;100.00
50734;BME280;36701;51.798;19.474;2022-12-08T09:32:18;98224.97;;;2.16;100.00
50734;BME280;36701;51.798;19.474;2022-12-08T09:34:45;98196.59;;;1.78;100.00
50734;BME280;36701;51.798;19.474;2022-12-08T09:37:14;98187.84;;;2.35;100.00
50734;BME280;36701;51.798;19.474;2022-12-08T09:39:41;98212.94;;;2.39;100.00
50734;BME280;36701;51.798;19.474;2022-12-08T09:42:09;98211.16;;;2.08;100.00
50734;BME280;36701;51.798;19.474;2022-12-08T09:47:51;98212.63;;;2.29;100.00
50734;BME280;36701;51.798;19.474;2022-12-08T09:50:36;98197.97;;;2.20;100.00
50734;BME280;36701;51.798;19.474;2022-12-08T09:53:13;98206.66;;;2.59;100.00
50734;BME280;36701;51.798;19.474;2022-12-08T09:56:18;98209.69;;;2.37;100.00
50734;BME280;36701;51.798;19.474;2022-12-08T10:01:35;98196.34;;;2.18;100.00
50734;BME280;36701;51.798;19.474;2022-12-08T10:04:33;98080.44;;;1.49;100.00
50734;BME280;36701;51.798;19.474;2022-12-08T10:07:23;98201.22;;;2.22;100.00
50734;BME280;36701;51.798;19.474;2022-12-08T10:10:01;98187.31;;;2.01;100.00
50734;BME280;36701;51.798;19.474;2022-12-08T10:18:28;98186.75;;;2.17;100.00
50734;BME280;36701;51.798;19.474;2022-12-08T10:21:20;98155.34;;;1.83;100.00
50734;BME280;36701;51.798;19.474;2022-12-08T10:23:51;98156.59;;;2.05;100.00
50734;BME280;36701;51.798;19.474;2022-12-08T10:26:21;98169.66;;;2.07;100.00
50734;BME280;36701;51.798;19.474;2022-12-08T10:28:48;98174.78;;;2.08;100.00
50734;BME280;36701;51.798;19.474;2022-12-08T10:31:21;98145.91;;;1.87;100.00
50734;BME280;36701;51.798;19.474;2022-12-08T10:33:58;98143.50;;;2.10;100.00
50734;BME280;36701;51.798;19.474;2022-12-08T10:36:52;98161.12;;;2.30;100.00
50734;BME280;36701;51.798;19.474;2022-12-08T10:42:18;98167.03;;;2.57;100.00
50734;BME280;36701;51.798;19.474;2022-12-08T10:45:24;98130.84;;;2.31;100.00
50734;BME280;36701;51.798;19.474;2022-12-08T10:50:56;98167.06;;;2.50;100.00
50734;BME280;36701;51.798;19.474;2022-12-08T10:53:33;98155.44;;;2.70;100.00
50734;BME280;36701;51.798;19.474;2022-12-08T10:56:16;98161.12;;;2.73;100.00
50734;BME280;36701;51.798;19.474;2022-12-08T10:59:04;98158.50;;;2.48;100.00
50734;BME280;36701;51.798;19.474;2022-12-08T11:01:37;98158.00;;;2.58;100.00
50734;BME280;36701;51.798;19.474;2022-12-08T11:06:42;98162.81;;;2.68;100.00
50734;BME280;36701;51.798;19.474;2022-12-08T11:14:22;98150.28;;;2.75;100.00
50734;BME280;36701;51.798;19.474;2022-12-08T11:16:52;98114.09;;;2.56;100.00
50734;BME280;36701;51.798;19.474;2022-12-08T11:19:26;98139.72;;;2.87;100.00
50734;BME280;36701;51.798;19.474;2022-12-08T11:21:55;98128.03;;;2.69;100.00
50734;BME280;36701;51.798;19.474;2022-12-08T11:24:28;98136.81;;;2.51;100.00
50734;BME280;36701;51.798;19.474;2022-12-08T11:27:03;98134.47;;;2.80;100.00
50734;BME280;36701;51.798;19.474;2022-12-08T11:29:36;98136.84;;;2.70;100.00
50734;BME280;36701;51.798;19.474;2022-12-08T11:32:13;98136.09;;;2.81;100.00
50734;BME280;36701;51.798;19.474;2022-12-08T11:34:59;98128.41;;;3.10;100.00
50734;BME280;36701;51.798;19.474;2022-12-08T11:37:47;98138.53;;;2.83;100.00
50734;BME280;36701;51.798;19.474;2022-12-08T11:40:33;98098.44;;;2.84;100.00
50734;BME280;36701;51.798;19.474;2022-12-08T11:43:38;98127.25;;;2.87;100.00
50734;BME280;36701;51.798;19.474;2022-12-08T11:46:18;98129.66;;;3.07;100.00
50734;BME280;36701;51.798;19.474;2022-12-08T11:51:26;98128.72;;;2.83;100.00
50734;BME280;36701;51.798;19.474;2022-12-08T11:54:21;98088.81;;;2.46;100.00
50734;BME280;36701;51.798;19.474;2022-12-08T11:56:55;98096.94;;;3.07;100.00
50734;BME280;36701;51.798;19.474;2022-12-08T11:59:47;98122.03;;;3.30;100.00
50734;BME280;36701;51.798;19.474;2022-12-08T12:02:17;98117.59;;;3.23;100.00
50734;BME280;36701;51.798;19.474;2022-12-08T12:10:34;98111.34;;;3.48;100.00
50734;BME280;36701;51.798;19.474;2022-12-08T12:18:48;98074.41;;;3.40;100.00
50734;BME280;36701;51.798;19.474;2022-12-08T12:21:42;98102.63;;;3.41;100.00
50734;BME280;36701;51.798;19.474;2022-12-08T12:24:19;98103.97;;;3.62;100.00
50734;BME280;36701;51.798;19.474;2022-12-08T12:30:27;98096.94;;;3.68;100.00
50734;BME280;36701;51.798;19.474;2022-12-08T12:32:59;98097.38;;;3.64;100.00
50734;BME280;36701;51.798;19.474;2022-12-08T12:35:43;98095.56;;;3.77;100.00
50734;BME280;36701;51.798;19.474;2022-12-08T12:41:07;98063.56;;;3.53;100.00
50734;BME280;36701;51.798;19.474;2022-12-08T12:43:37;98077.81;;;3.28;100.00
50734;BME280;36701;51.798;19.474;2022-12-08T12:48:50;98082.81;;;3.79;100.00
50734;BME280;36701;51.798;19.474;2022-12-08T12:54:26;98053.31;;;3.80;100.00
50734;BME280;36701;51.798;19.474;2022-12-08T13:02:37;98075.84;;;3.54;100.00
50734;BME280;36701;51.798;19.474;2022-12-08T13:05:18;98066.28;;;3.89;100.00
50734;BME280;36701;51.798;19.474;2022-12-08T13:13:14;98069.84;;;3.71;100.00
50734;BME280;36701;51.798;19.474;2022-12-08T13:18:39;98062.12;;;4.05;100.00
50734;BME280;36701;51.798;19.474;2022-12-08T13:26:22;98043.59;;;3.86;100.00
50734;BME280;36701;51.798;19.474;2022-12-08T13:31:45;98069.62;;;3.84;100.00
50734;BME280;36701;51.798;19.474;2022-12-08T13:47:13;98067.81;;;3.96;100.00
50734;BME280;36701;51.798;19.474;2022-12-08T13:49:47;98052.84;;;3.95;100.00
50734;BME280;36701;51.798;19.474;2022-12-08T13:52:28;98065.97;;;4.09;100.00
50734;BME280;36701;51.798;19.474;2022-12-08T13:54:57;98071.47;;;3.72;100.00
50734;BME280;36701;51.798;19.474;2022-12-08T13:57:29;98074.31;;;3.47;100.00
50734;BME280;36701;51.798;19.474;2022-12-08T14:00:01;98079.31;;;3.67;100.00
50734;BME280;36701;51.798;19.474;2022-12-08T14:02:42;98079.94;;;3.92;100.00
50734;BME280;36701;51.798;19.474;2022-12-08T14:05:09;98062.94;;;3.93;100.00
50734;BME280;36701;51.798;19.474;2022-12-08T14:07:37;98083.03;;;3.66;100.00
50734;BME280;36701;51.798;19.474;2022-12-08T14:10:09;98074.88;;;3.37;100.00
50734;BME280;36701;51.798;19.474;2022-12-08T14:12:45;98074.13;;;3.72;100.00
50734;BME280;36701;51.798;19.474;2022-12-08T14:15:13;98080.97;;;3.68;100.00
50734;BME280;36701;51.798;19.474;2022-12-08T14:17:50;98078.41;;;3.73;100.00
50734;BME280;36701;51.798;19.474;2022-12-08T14:20:50;98057.66;;;3.51;100.00
50734;BME280;36701;51.798;19.474;2022-12-08T14:23:15;98093.69;;;3.66;100.00
50734;BME280;36701;51.798;19.474;2022-12-08T14:25:45;98076.53;;;3.61;100.00
50734;BME280;36701;51.798;19.474;2022-12-08T14:28:13;98054.06;;;3.57;100.00
50734;BME280;36701;51.798;19.474;2022-12-08T14:30:39;98080.84;;;3.74;100.00
50734;BME280;36701;51.798;19.474;2022-12-08T14:33:12;98084.31;;;3.75;100.00
50734;BME280;36701;51.798;19.474;2022-12-08T14:35:39;98073.41;;;3.64;100.00
50734;BME280;36701;51.798;19.474;2022-12-08T14:38:17;98069.00;;;3.58;100.00
50734;BME280;36701;51.798;19.474;2022-12-08T14:40:59;98058.94;;;3.60;100.00
50734;BME280;36701;51.798;19.474;2022-12-08T14:43:28;98078.88;;;3.70;100.00
50734;BME280;36701;51.798;19.474;2022-12-08T14:46:12;98075.28;;;3.76;100.00
50734;BME280;36701;51.798;19.474;2022-12-08T14:48:44;98079.59;;;3.77;100.00
50734;BME280;36701;51.798;19.474;2022-12-08T14:53:51;98060.31;;;3.51;100.00
50734;BME280;36701;51.798;19.474;2022-12-08T14:56:24;98076.81;;;3.41;100.00
50734;BME280;36701;51.798;19.474;2022-12-08T14:59:19;98080.09;;;3.43;100.00
50734;BME280;36701;51.798;19.474;2022-12-08T15:01:50;98083.75;;;3.73;100.00
50734;BME280;36701;51.798;19.474;2022-12-08T15:04:22;98081.63;;;3.51;100.00
50734;BME280;36701;51.798;19.474;2022-12-08T15:06:59;98093.41;;;3.55;100.00
50734;BME280;36701;51.798;19.474;2022-12-08T15:14:41;98055.44;;;3.48;100.00
50734;BME280;36701;51.798;19.474;2022-12-08T15:17:47;98081.63;;;3.51;100.00
50734;BME280;36701;51.798;19.474;2022-12-08T15:22:53;98044.97;;;3.35;100.00
50734;BME280;36701;51.798;19.474;2022-12-08T15:25:21;98083.13;;;3.59;100.00
50734;BME280;36701;51.798;19.474;2022-12-08T15:27:49;98061.28;;;3.26;100.00
50734;BME280;36701;51.798;19.474;2022-12-08T15:30:16;98081.53;;;3.27;100.00
50734;BME280;36701;51.798;19.474;2022-12-08T15:32:43;98087.84;;;3.45;100.00
50734;BME280;36701;51.798;19.474;2022-12-08T15:35:13;98063.59;;;3.04;100.00
50734;BME280;36701;51.798;19.474;2022-12-08T15:37:40;98094.22;;;3.25;100.00
50734;BME280;36701;51.798;19.474;2022-12-08T15:40:15;98089.78;;;3.38;100.00
50734;BME280;36701;51.798;19.474;2022-12-08T15:42:42;98084.62;;;3.24;100.00
50734;BME280;36701;51.798;19.474;2022-12-08T15:45:13;98068.25;;;3.09;100.00
50734;BME280;36701;51.798;19.474;2022-12-08T15:47:43;98096.75;;;3.20;100.00
50734;BME280;36701;51.798;19.474;2022-12-08T15:50:19;98101.91;;;3.34;100.00
50734;BME280;36701;51.798;19.474;2022-12-08T15:52:45;98094.63;;;3.41;100.00
50734;BME280;36701;51.798;19.474;2022-12-08T15:55:13;98058.37;;;2.79;100.00
50734;BME280;36701;51.798;19.474;2022-12-08T15:57:42;98081.69;;;3.14;100.00
50734;BME280;36701;51.798;19.474;2022-12-08T16:00:24;98096.84;;;3.44;100.00
50734;BME280;36701;51.798;19.474;2022-12-08T16:02:51;98089.38;;;3.22;100.00
50734;BME280;36701;51.798;19.474;2022-12-08T16:05:17;98092.06;;;3.04;100.00
50734;BME280;36701;51.798;19.474;2022-12-08T16:07:44;98086.75;;;3.04;100.00
50734;BME280;36701;51.798;19.474;2022-12-08T16:10:19;98059.31;;;2.73;100.00
50734;BME280;36701;51.798;19.474;2022-12-08T16:12:46;98091.03;;;3.05;100.00
50734;BME280;36701;51.798;19.474;2022-12-08T16:15:40;98091.44;;;3.20;100.00
50734;BME280;36701;51.798;19.474;2022-12-08T16:18:20;98043.78;;;3.19;100.00
50734;BME280;36701;51.798;19.474;2022-12-08T16:20:49;98063.69;;;3.16;100.00
50734;BME280;36701;51.798;19.474;2022-12-08T16:23:15;98068.53;;;2.89;100.00
50734;BME280;36701;51.798;19.474;2022-12-08T16:25:42;98072.69;;;3.15;100.00
50734;BME280;36701;51.798;19.474;2022-12-08T16:28:09;98070.34;;;3.07;100.00
50734;BME280;36701;51.798;19.474;2022-12-08T16:30:35;98071.97;;;3.08;100.00
50734;BME280;36701;51.798;19.474;2022-12-08T16:33:02;98038.75;;;2.80;100.00
50734;BME280;36701;51.798;19.474;2022-12-08T16:35:29;98075.38;;;2.97;100.00
50734;BME280;36701;51.798;19.474;2022-12-08T16:38:02;98079.94;;;3.08;100.00
50734;BME280;36701;51.798;19.474;2022-12-08T16:40:29;98075.91;;;2.87;100.00
50734;BME280;36701;51.798;19.474;2022-12-08T16:42:56;98075.84;;;2.75;100.00
50734;BME280;36701;51.798;19.474;2022-12-08T16:45:23;98038.19;;;2.78;100.00
50734;BME280;36701;51.798;19.474;2022-12-08T16:47:50;98073.91;;;2.82;100.00
50734;BME280;36701;51.798;19.474;2022-12-08T16:52:45;98054.62;;;2.87;100.00
50734;BME280;36701;51.798;19.474;2022-12-08T16:55:15;98087.63;;;2.79;100.00